Time;durP1;ratioP1;P1;durP2;ratioP2;P2;SDS_P1;SDS_P2;PMS_P1;PMS_P2;Temp;Humidity;BMP_temperature;BMP_pressure;BME280_temperature;BME280_humidity;BME280_pressure;Samples;Min_cycle;Max_cycle;Signal;HPM_P1;HPM_P2
2020/12/31 00:01:24;;;;;;;12.05;8.35;;;3.80;99.90;;;;;;5054854;28;20061;-59
2020/12/31 00:03:50;;;;;;;9.90;7.35;;;3.80;99.90;;;;;;5057104;28;20029;-58
2020/12/31 00:06:16;;;;;;;10.27;7.00;;;3.80;99.90;;;;;;5058814;28;20473;-61
2020/12/31 00:08:42;;;;;;;10.07;6.60;;;3.70;99.90;;;;;;5056033;28;20029;-59
2020/12/31 00:11:07;;;;;;;10.02;7.63;;;3.70;99.90;;;;;;5054759;28;20025;-59
2020/12/31 00:13:33;;;;;;;9.70;7.13;;;3.80;99.90;;;;;;5054485;28;20484;-58
2020/12/31 00:15:59;;;;;;;10.85;7.18;;;3.70;99.90;;;;;;5054266;28;20033;-60
2020/12/31 00:18:26;;;;;;;10.45;6.78;;;3.80;99.90;;;;;;5055262;28;20048;-60
2020/12/31 00:20:51;;;;;;;11.88;7.22;;;3.70;99.90;;;;;;5054587;28;20057;-60
2020/12/31 00:23:17;;;;;;;11.98;6.63;;;3.70;99.90;;;;;;5054217;28;20459;-62
2020/12/31 00:25:48;;;;;;;10.55;6.53;;;3.70;99.90;;;;;;5053820;28;20025;-60
2020/12/31 00:28:15;;;;;;;9.70;6.53;;;3.70;99.90;;;;;;5055161;28;20068;-58
2020/12/31 00:30:42;;;;;;;12.45;7.20;;;3.70;99.90;;;;;;5055500;28;20041;-58
2020/12/31 00:33:08;;;;;;;11.38;7.75;;;3.70;99.90;;;;;;5057652;28;20028;-59
2020/12/31 00:35:33;;;;;;;9.20;6.93;;;3.70;99.90;;;;;;5057060;28;20035;-63
2020/12/31 00:37:59;;;;;;;12.60;6.53;;;3.80;99.90;;;;;;5055949;28;20029;-60
2020/12/31 00:40:25;;;;;;;11.32;7.55;;;3.80;99.90;;;;;;5054186;28;20059;-59
2020/12/31 00:42:50;;;;;;;13.52;7.57;;;3.70;99.90;;;;;;5056721;28;20025;-61
2020/12/31 00:45:16;;;;;;;9.27;6.57;;;3.70;99.90;;;;;;5056082;28;20086;-59
2020/12/31 00:47:41;;;;;;;9.10;6.55;;;3.70;99.90;;;;;;5056178;28;20068;-60
2020/12/31 00:50:07;;;;;;;8.88;6.35;;;3.70;99.90;;;;;;5054518;28;20490;-59
2020/12/31 00:52:33;;;;;;;8.98;6.53;;;3.80;99.90;;;;;;5054539;28;20031;-64
2020/12/31 00:54:58;;;;;;;12.35;6.93;;;3.60;99.90;;;;;;5053290;28;20028;-58
2020/12/31 00:57:24;;;;;;;11.00;6.85;;;3.70;99.90;;;;;;5052929;28;20037;-60
2020/12/31 00:59:50;;;;;;;10.70;7.60;;;3.70;99.90;;;;;;5053582;28;20021;-60
2020/12/31 01:02:15;;;;;;;11.35;7.20;;;3.80;99.90;;;;;;5054029;28;20028;-59
2020/12/31 01:04:41;;;;;;;8.73;6.70;;;3.70;99.90;;;;;;5053040;28;20104;-59
2020/12/31 01:07:07;;;;;;;8.35;6.07;;;3.70;99.90;;;;;;5056285;28;20029;-60
2020/12/31 01:09:32;;;;;;;11.10;7.22;;;3.80;99.90;;;;;;5054394;28;20025;-64
2020/12/31 01:11:58;;;;;;;11.13;7.13;;;3.70;99.90;;;;;;5054700;28;20425;-58
2020/12/31 01:14:23;;;;;;;9.27;6.13;;;3.70;99.90;;;;;;5052961;28;20360;-60
2020/12/31 01:16:50;;;;;;;9.45;6.53;;;3.70;99.90;;;;;;5053333;28;20371;-58
2020/12/31 01:19:17;;;;;;;8.82;6.20;;;3.70;99.90;;;;;;5053122;28;20057;-60
2020/12/31 01:21:46;;;;;;;10.30;5.82;;;3.70;99.90;;;;;;5053885;28;20025;-58
2020/12/31 01:24:13;;;;;;;9.52;7.25;;;3.80;99.90;;;;;;5053344;28;20029;-58
2020/12/31 01:26:39;;;;;;;9.52;6.00;;;3.70;99.90;;;;;;5052597;28;20029;-59
2020/12/31 01:29:05;;;;;;;9.95;6.90;;;3.70;99.90;;;;;;5054131;28;20387;-57
2020/12/31 01:31:31;;;;;;;9.85;7.35;;;3.80;99.90;;;;;;5052548;28;20082;-58
2020/12/31 01:33:57;;;;;;;10.30;6.15;;;3.70;99.90;;;;;;5054819;28;20021;-61
2020/12/31 01:36:23;;;;;;;9.43;6.90;;;3.70;99.90;;;;;;5054602;28;20031;-63
2020/12/31 01:38:49;;;;;;;9.93;6.38;;;3.70;99.90;;;;;;5055037;28;20021;-58
2020/12/31 01:41:21;;;;;;;10.52;6.22;;;3.70;99.90;;;;;;5054382;28;20085;-65
2020/12/31 01:44:03;;;;;;;9.40;6.68;;;3.70;99.90;;;;;;5053008;28;20493;-59
2020/12/31 01:46:33;;;;;;;9.85;6.70;;;3.70;99.90;;;;;;5053385;28;20410;-59
2020/12/31 01:49:00;;;;;;;12.88;7.55;;;3.70;99.90;;;;;;5053022;28;20043;-58
2020/12/31 01:51:27;;;;;;;9.93;6.10;;;3.70;99.90;;;;;;5052172;28;20025;-59
2020/12/31 01:53:56;;;;;;;9.07;6.63;;;3.80;99.90;;;;;;5053007;28;20029;-62
2020/12/31 01:56:29;;;;;;;8.93;6.47;;;3.90;99.90;;;;;;5053623;28;20025;-60
2020/12/31 01:58:56;;;;;;;10.60;7.20;;;3.80;99.90;;;;;;5054854;28;20108;-61
2020/12/31 02:01:23;;;;;;;9.70;6.85;;;3.70;99.90;;;;;;5055395;28;20021;-63
2020/12/31 02:03:50;;;;;;;14.25;7.57;;;3.70;99.90;;;;;;5053618;28;20029;-59
2020/12/31 02:06:16;;;;;;;8.98;6.57;;;3.70;99.90;;;;;;5055131;28;20039;-62
2020/12/31 02:08:45;;;;;;;10.50;7.05;;;3.60;99.90;;;;;;5054797;28;20021;-60
2020/12/31 02:11:15;;;;;;;13.38;8.40;;;3.70;99.90;;;;;;5053839;28;20036;-60
2020/12/31 02:13:45;;;;;;;9.88;6.47;;;3.70;99.90;;;;;;5054427;28;20029;-59
2020/12/31 02:16:18;;;;;;;11.52;7.22;;;3.70;99.90;;;;;;5055543;28;20036;-61
2020/12/31 02:19:11;;;;;;;9.30;7.03;;;3.70;99.90;;;;;;5036724;28;20044;-60
2020/12/31 02:21:38;;;;;;;11.40;7.93;;;3.70;99.90;;;;;;5052534;28;20021;-59
2020/12/31 02:24:07;;;;;;;12.32;7.35;;;3.70;99.90;;;;;;5036016;28;20029;-59
2020/12/31 02:26:34;;;;;;;12.00;8.23;;;3.70;99.90;;;;;;5053585;28;20037;-60
2020/12/31 02:29:01;;;;;;;15.00;8.15;;;3.60;99.90;;;;;;5054690;28;20064;-63
2020/12/31 02:31:28;;;;;;;10.70;7.47;;;3.70;99.90;;;;;;5055076;28;20036;-71
2020/12/31 02:33:58;;;;;;;13.55;7.95;;;3.70;99.90;;;;;;5053490;28;20027;-63
2020/12/31 02:36:26;;;;;;;11.88;7.47;;;3.70;99.90;;;;;;5052958;28;20055;-63
2020/12/31 02:38:51;;;;;;;11.00;7.50;;;3.80;99.90;;;;;;5053839;28;20074;-62
2020/12/31 02:41:18;;;;;;;13.77;7.68;;;3.70;99.90;;;;;;5051858;28;20390;-61
2020/12/31 02:43:44;;;;;;;12.82;7.45;;;3.80;99.90;;;;;;5051362;28;20463;-60
2020/12/31 02:46:12;;;;;;;15.85;8.55;;;3.80;99.90;;;;;;5053400;28;20057;-60
2020/12/31 02:48:39;;;;;;;11.98;7.65;;;3.80;99.90;;;;;;5053265;28;20041;-59
2020/12/31 02:51:06;;;;;;;11.95;8.35;;;3.80;99.90;;;;;;5054633;28;20044;-61
2020/12/31 02:53:32;;;;;;;11.68;7.35;;;3.80;99.90;;;;;;5052562;28;20028;-64
2020/12/31 02:55:57;;;;;;;11.50;7.80;;;3.80;99.90;;;;;;5053297;28;20033;-58
2020/12/31 02:58:23;;;;;;;14.00;7.95;;;3.70;99.90;;;;;;5053409;28;20056;-58
2020/12/31 03:00:49;;;;;;;11.27;7.43;;;3.60;99.90;;;;;;5051286;28;20120;-59
2020/12/31 03:03:15;;;;;;;12.20;8.10;;;3.50;99.90;;;;;;5052941;28;20104;-59
2020/12/31 03:05:41;;;;;;;11.32;7.80;;;3.60;99.90;;;;;;5052119;28;20064;-59
2020/12/31 03:08:06;;;;;;;14.38;7.43;;;3.50;99.90;;;;;;5052510;28;20029;-59
2020/12/31 03:10:32;;;;;;;12.32;8.00;;;3.50;99.90;;;;;;5050749;28;20021;-60
2020/12/31 03:12:58;;;;;;;13.32;8.65;;;3.60;99.90;;;;;;5052877;28;20426;-59
2020/12/31 03:15:24;;;;;;;13.02;8.15;;;3.50;99.90;;;;;;5051362;28;20040;-61
2020/12/31 03:17:50;;;;;;;10.70;7.63;;;3.50;99.90;;;;;;5050950;28;20332;-58
2020/12/31 03:20:17;;;;;;;14.15;8.60;;;3.60;99.90;;;;;;5052485;28;20459;-59
2020/12/31 03:22:42;;;;;;;14.00;7.93;;;3.60;99.90;;;;;;5050855;28;20025;-58
2020/12/31 03:25:08;;;;;;;13.15;8.70;;;3.70;99.90;;;;;;5052669;28;20022;-58
2020/12/31 03:27:34;;;;;;;13.05;8.40;;;3.70;99.90;;;;;;5051780;28;20033;-59
2020/12/31 03:30:00;;;;;;;11.65;7.85;;;3.60;99.90;;;;;;5051218;28;20116;-58
2020/12/31 03:32:26;;;;;;;15.23;8.45;;;3.60;99.90;;;;;;5051346;28;20051;-58
2020/12/31 03:34:51;;;;;;;17.88;9.60;;;3.70;99.90;;;;;;5050873;28;20454;-57
2020/12/31 03:37:17;;;;;;;12.77;7.95;;;3.70;99.90;;;;;;5052441;28;20112;-58
2020/12/31 03:39:43;;;;;;;13.43;8.35;;;3.70;99.90;;;;;;5052037;28;20035;-59
2020/12/31 03:42:09;;;;;;;14.25;9.15;;;3.70;99.90;;;;;;5051392;28;20467;-59
2020/12/31 03:44:35;;;;;;;13.35;8.07;;;3.70;99.90;;;;;;5052015;28;20071;-58
2020/12/31 03:47:01;;;;;;;13.52;8.38;;;3.90;99.90;;;;;;5050744;28;20049;-59
2020/12/31 03:49:27;;;;;;;12.95;8.77;;;3.60;99.90;;;;;;5054123;28;20037;-59
2020/12/31 03:51:53;;;;;;;12.75;8.43;;;3.60;99.90;;;;;;5054955;28;20033;-58
2020/12/31 03:54:19;;;;;;;11.75;7.75;;;3.60;99.90;;;;;;5057115;28;20021;-59
2020/12/31 03:56:44;;;;;;;11.93;7.68;;;3.70;99.90;;;;;;5056466;28;20025;-59
2020/12/31 03:59:10;;;;;;;13.32;9.10;;;3.60;99.90;;;;;;5056512;28;20029;-58
2020/12/31 04:01:36;;;;;;;18.38;9.20;;;3.70;99.90;;;;;;5054902;28;20025;-65
2020/12/31 04:04:02;;;;;;;13.77;9.15;;;3.60;99.90;;;;;;5056245;28;20378;-58
2020/12/31 04:06:29;;;;;;;15.13;8.65;;;3.60;99.90;;;;;;5054754;28;20032;-60
2020/12/31 04:08:55;;;;;;;12.75;9.00;;;3.60;99.90;;;;;;5054079;28;20033;-60
2020/12/31 04:11:20;;;;;;;11.90;9.15;;;3.60;99.90;;;;;;5054693;28;20107;-59
2020/12/31 04:13:46;;;;;;;14.77;8.30;;;3.60;99.90;;;;;;5054965;28;20028;-61
2020/12/31 04:16:12;;;;;;;13.43;8.10;;;3.70;99.90;;;;;;5056759;28;20029;-59
2020/12/31 04:18:38;;;;;;;13.18;8.07;;;3.70;99.90;;;;;;5054380;28;20068;-60
2020/12/31 04:21:04;;;;;;;14.73;10.10;;;3.70;99.90;;;;;;5056451;28;20086;-58
2020/12/31 04:23:30;;;;;;;12.98;8.07;;;3.60;99.90;;;;;;5054853;28;20024;-58
2020/12/31 04:25:55;;;;;;;11.55;7.72;;;3.60;99.90;;;;;;5055737;28;20375;-60
2020/12/31 04:28:21;;;;;;;14.68;8.75;;;3.60;99.90;;;;;;5056152;28;20025;-58
2020/12/31 04:30:48;;;;;;;13.00;8.38;;;3.60;99.90;;;;;;5055666;28;20025;-58
2020/12/31 04:33:15;;;;;;;12.18;8.18;;;3.70;99.90;;;;;;5055959;28;20429;-58
2020/12/31 04:35:41;;;;;;;18.00;7.90;;;3.70;99.90;;;;;;5055261;28;20032;-60
2020/12/31 04:38:07;;;;;;;11.25;7.35;;;3.60;99.90;;;;;;5055450;28;20025;-60
2020/12/31 04:40:33;;;;;;;13.88;7.35;;;3.60;99.90;;;;;;5053976;28;20032;-62
2020/12/31 04:42:59;;;;;;;11.93;8.23;;;3.60;99.90;;;;;;5054563;28;20083;-58
2020/12/31 04:45:26;;;;;;;11.07;8.25;;;3.60;99.90;;;;;;5055138;28;20028;-59
2020/12/31 04:48:01;;;;;;;11.15;7.93;;;3.70;99.90;;;;;;5052913;28;20148;-59
2020/12/31 04:50:33;;;;;;;11.90;8.18;;;3.60;99.90;;;;;;5055647;28;20033;-58
2020/12/31 04:53:07;;;;;;;13.20;8.30;;;3.50;99.90;;;;;;5053700;28;20120;-60
2020/12/31 04:55:43;;;;;;;13.23;8.52;;;3.50;99.90;;;;;;5053697;28;20083;-58
2020/12/31 04:58:10;;;;;;;10.57;7.97;;;3.50;99.90;;;;;;5054199;28;20021;-60
2020/12/31 05:00:37;;;;;;;12.23;8.02;;;3.40;99.90;;;;;;5053659;28;20370;-69
2020/12/31 05:03:05;;;;;;;10.00;7.85;;;3.40;99.90;;;;;;5055291;28;20033;-59
2020/12/31 05:05:31;;;;;;;12.82;7.60;;;3.50;99.90;;;;;;5054960;28;20021;-65
2020/12/31 05:07:58;;;;;;;13.85;8.20;;;3.50;99.90;;;;;;5054691;28;20037;-58
2020/12/31 05:10:24;;;;;;;11.18;8.13;;;3.60;99.90;;;;;;5054142;28;20382;-58
2020/12/31 05:13:00;;;;;;;12.95;8.98;;;3.60;99.90;;;;;;5055987;28;20501;-59
2020/12/31 05:15:35;;;;;;;14.93;8.65;;;3.60;99.90;;;;;;5055898;28;20466;-60
2020/12/31 05:18:18;;;;;;;12.90;8.07;;;3.50;99.90;;;;;;5054049;28;20475;-62
2020/12/31 05:20:46;;;;;;;13.85;9.02;;;3.60;99.90;;;;;;5055516;28;20032;-60
2020/12/31 05:23:13;;;;;;;10.43;7.25;;;3.50;99.90;;;;;;5057208;28;20028;-62
2020/12/31 05:25:39;;;;;;;12.07;7.95;;;3.50;99.90;;;;;;5056054;28;20057;-60
2020/12/31 05:28:31;;;;;;;13.18;9.38;;;3.50;99.90;;;;;;5053862;28;20060;-58
2020/12/31 05:31:01;;;;;;;11.55;7.57;;;3.50;99.90;;;;;;5053173;28;20036;-59
2020/12/31 05:33:35;;;;;;;13.73;7.38;;;3.50;99.90;;;;;;5055149;28;20090;-60
2020/12/31 05:36:28;;;;;;;10.80;7.28;;;3.60;99.90;;;;;;5054741;28;20390;-60
2020/12/31 05:38:57;;;;;;;12.00;7.78;;;3.60;99.90;;;;;;5054869;28;20104;-59
2020/12/31 05:41:24;;;;;;;12.77;7.95;;;3.70;99.90;;;;;;5052894;28;20540;-58
2020/12/31 05:43:58;;;;;;;9.63;7.78;;;3.60;99.90;;;;;;5052272;28;20115;-59
2020/12/31 05:46:25;;;;;;;11.63;8.57;;;3.70;99.90;;;;;;5052113;28;20128;-61
2020/12/31 05:49:05;;;;;;;12.65;7.22;;;3.70;99.90;;;;;;5051794;28;20037;-58
2020/12/31 05:51:33;;;;;;;12.30;8.50;;;3.60;99.90;;;;;;5053809;28;20060;-58
2020/12/31 05:54:15;;;;;;;13.27;7.78;;;3.60;99.90;;;;;;5052911;28;20381;-60
2020/12/31 05:56:44;;;;;;;11.20;7.85;;;3.70;99.90;;;;;;5054780;28;20116;-65
2020/12/31 05:59:24;;;;;;;10.75;7.60;;;3.60;99.90;;;;;;5055078;28;20036;-58
2020/12/31 06:01:58;;;;;;;10.90;7.65;;;3.60;99.90;;;;;;5054904;28;20029;-60
2020/12/31 06:04:29;;;;;;;13.05;8.65;;;3.50;99.90;;;;;;5053207;28;20120;-60
2020/12/31 06:07:00;;;;;;;11.07;7.18;;;3.60;99.90;;;;;;5052363;28;20025;-61
2020/12/31 06:09:34;;;;;;;10.98;7.43;;;3.70;99.90;;;;;;5054214;28;20037;-59
2020/12/31 06:12:01;;;;;;;10.25;6.93;;;3.80;99.90;;;;;;5051295;28;20029;-59
2020/12/31 06:14:28;;;;;;;10.30;6.78;;;3.70;99.90;;;;;;5053647;28;20052;-59
2020/12/31 06:16:59;;;;;;;11.60;6.85;;;3.80;99.90;;;;;;5052705;28;20025;-59
2020/12/31 06:19:41;;;;;;;11.52;7.18;;;3.80;99.90;;;;;;5053918;28;20048;-59
2020/12/31 06:22:09;;;;;;;9.68;6.63;;;3.80;99.90;;;;;;5054100;28;20036;-60
2020/12/31 06:24:37;;;;;;;9.50;6.47;;;3.80;99.90;;;;;;5055483;28;20462;-58
2020/12/31 06:27:11;;;;;;;9.07;6.70;;;3.80;99.90;;;;;;5052121;28;20174;-58
2020/12/31 06:29:46;;;;;;;10.50;7.80;;;3.70;99.90;;;;;;5052747;28;20025;-59
2020/12/31 06:32:35;;;;;;;12.68;7.38;;;3.80;99.90;;;;;;5053257;28;20499;-60
2020/12/31 06:35:07;;;;;;;10.30;6.63;;;3.80;99.90;;;;;;5053935;28;20048;-66
2020/12/31 06:37:32;;;;;;;;;;;3.80;99.90;;;;;;5054821;28;20032;-59
2020/12/31 06:40:27;;;;;;;10.27;6.95;;;3.80;99.90;;;;;;5055289;28;19905;-62
2020/12/31 06:43:38;;;;;;;8.25;5.78;;;3.80;99.90;;;;;;5053763;28;20032;-67
2020/12/31 06:46:20;;;;;;;10.23;6.13;;;3.80;99.90;;;;;;5051870;28;20048;-62
2020/12/31 06:48:52;;;;;;;;;;;3.90;99.90;;;;;;5053964;28;20372;-62
2020/12/31 06:51:24;;;;;;;8.30;5.85;;;3.90;99.90;;;;;;5053564;28;20369;-60
2020/12/31 06:53:50;;;;;;;;;;;3.80;99.90;;;;;;5053150;28;20068;-58
2020/12/31 06:56:15;;;;;;;9.85;5.97;;;3.70;99.90;;;;;;5052828;28;19904;-60
2020/12/31 06:58:43;;;;;;;10.23;5.93;;;3.80;99.90;;;;;;5052934;28;20032;-60
2020/12/31 07:01:29;;;;;;;9.65;6.13;;;3.80;99.90;;;;;;5054276;28;20078;-60
2020/12/31 07:03:58;;;;;;;10.43;5.95;;;3.70;99.90;;;;;;5053206;28;20025;-60
2020/12/31 07:06:30;;;;;;;12.43;6.22;;;3.90;99.90;;;;;;5054754;28;20025;-59
2020/12/31 07:08:57;;;;;;;8.88;6.20;;;3.90;99.90;;;;;;5051577;28;20493;-59
2020/12/31 07:11:31;;;;;;;10.60;6.43;;;3.70;99.90;;;;;;5054239;28;20029;-62
2020/12/31 07:13:57;;;;;;;10.15;6.10;;;3.70;99.90;;;;;;5054457;28;20017;-60
2020/12/31 07:16:39;;;;;;;9.18;6.22;;;3.70;99.90;;;;;;5054533;28;20351;-66
2020/12/31 07:19:05;;;;;;;8.52;5.55;;;3.70;99.90;;;;;;5052942;28;20036;-58
2020/12/31 07:21:31;;;;;;;11.77;5.80;;;3.80;99.90;;;;;;5053111;28;20055;-60
2020/12/31 07:23:57;;;;;;;14.15;6.20;;;3.80;99.90;;;;;;5054591;28;20446;-59
2020/12/31 07:26:26;;;;;;;8.77;6.10;;;3.90;99.90;;;;;;5056671;28;20111;-58
2020/12/31 07:28:53;;;;;;;7.68;5.32;;;3.80;99.90;;;;;;5056215;28;20032;-59
2020/12/31 07:31:40;;;;;;;8.90;6.18;;;3.90;99.90;;;;;;5056725;28;20025;-60
2020/12/31 07:34:24;;;;;;;8.82;5.78;;;3.90;99.90;;;;;;5056772;28;20024;-59
2020/12/31 07:37:01;;;;;;;8.35;5.60;;;4.00;99.90;;;;;;5057714;28;20029;-60
2020/12/31 07:39:27;;;;;;;7.80;5.30;;;3.90;99.90;;;;;;5057905;28;20029;-61
2020/12/31 07:42:13;;;;;;;10.35;6.57;;;3.90;99.90;;;;;;5057341;28;20044;-63
2020/12/31 07:44:57;;;;;;;7.88;5.22;;;4.00;99.90;;;;;;5057809;28;20047;-61
2020/12/31 07:47:24;;;;;;;7.95;5.10;;;4.00;99.90;;;;;;5057893;28;20057;-62
2020/12/31 07:49:53;;;;;;;7.10;4.72;;;4.10;99.90;;;;;;5057016;28;20029;-59
2020/12/31 07:52:19;;;;;;;6.78;5.18;;;4.10;99.90;;;;;;5056164;28;20025;-59
2020/12/31 07:54:46;;;;;;;8.05;4.68;;;4.00;99.90;;;;;;5056139;28;20029;-58
2020/12/31 07:57:13;;;;;;;7.20;4.47;;;4.00;99.90;;;;;;5055660;28;20482;-59
2020/12/31 07:59:41;;;;;;;5.90;4.70;;;4.00;99.90;;;;;;5056643;28;20021;-59
2020/12/31 08:02:07;;;;;;;7.95;4.90;;;3.80;99.90;;;;;;5054920;28;20296;-59
2020/12/31 08:04:34;;;;;;;6.93;4.55;;;3.70;99.90;;;;;;5056365;28;20032;-61
2020/12/31 08:07:13;;;;;;;4.88;3.28;;;3.70;99.90;;;;;;5056110;28;20036;-58
2020/12/31 08:09:39;;;;;;;8.57;3.97;;;3.70;99.90;;;;;;5056761;28;20451;-59
2020/12/31 08:12:05;;;;;;;5.70;3.97;;;3.70;99.90;;;;;;5054643;28;20040;-60
2020/12/31 08:14:42;;;;;;;7.55;3.97;;;3.70;99.90;;;;;;5054713;28;20115;-59
2020/12/31 08:17:09;;;;;;;6.45;3.58;;;3.80;99.90;;;;;;5054200;28;20611;-59
2020/12/31 08:19:38;;;;;;;6.63;4.45;;;3.90;99.90;;;;;;5054664;28;20025;-59
2020/12/31 08:22:16;;;;;;;7.95;4.18;;;3.60;99.90;;;;;;5055062;28;20588;-59
2020/12/31 08:24:53;;;;;;;8.02;3.67;;;3.70;99.90;;;;;;5055271;28;20562;-58
2020/12/31 08:27:20;;;;;;;8.30;4.70;;;3.60;99.90;;;;;;5054729;28;20036;-60
2020/12/31 08:29:46;;;;;;;6.68;3.92;;;3.70;99.90;;;;;;5055321;28;20482;-62
2020/12/31 08:32:22;;;;;;;4.53;3.70;;;3.70;99.90;;;;;;5054445;28;20029;-58
2020/12/31 08:34:52;;;;;;;6.97;3.95;;;3.80;99.90;;;;;;5053659;28;20021;-59
2020/12/31 08:37:24;;;;;;;9.25;4.25;;;3.70;99.90;;;;;;5054832;28;20143;-62
2020/12/31 08:39:55;;;;;;;5.72;4.22;;;3.90;99.90;;;;;;5053612;28;20029;-67
2020/12/31 08:42:24;;;;;;;5.40;3.80;;;3.80;99.90;;;;;;5053911;28;20033;-60
2020/12/31 08:44:55;;;;;;;5.57;4.18;;;3.70;99.90;;;;;;5054339;28;20348;-66
2020/12/31 08:47:25;;;;;;;4.45;3.55;;;3.70;99.90;;;;;;5054294;28;20056;-60
2020/12/31 08:49:56;;;;;;;7.13;4.25;;;3.80;99.90;;;;;;5053991;28;20021;-61
2020/12/31 08:52:24;;;;;;;8.07;5.68;;;3.90;99.90;;;;;;5054322;28;20025;-62
2020/12/31 08:55:12;;;;;;;7.07;4.90;;;3.60;99.90;;;;;;5055259;28;20094;-61
2020/12/31 08:57:38;;;;;;;8.65;5.72;;;3.50;99.90;;;;;;5054515;28;20033;-59
2020/12/31 09:00:06;;;;;;;7.43;5.30;;;3.40;99.90;;;;;;5052440;28;20028;-60
2020/12/31 09:02:32;;;;;;;7.63;5.72;;;3.50;99.90;;;;;;5054619;28;20024;-61
2020/12/31 09:05:16;;;;;;;9.77;5.68;;;3.60;99.90;;;;;;5052477;28;20032;-58
2020/12/31 09:07:42;;;;;;;8.32;5.53;;;3.50;99.90;;;;;;5054394;28;20036;-65
2020/12/31 09:10:12;;;;;;;14.38;6.05;;;3.50;99.90;;;;;;5052576;28;20394;-59
2020/12/31 09:12:38;;;;;;;6.80;4.93;;;3.50;99.90;;;;;;5054126;28;20086;-65
2020/12/31 09:15:05;;;;;;;8.38;5.05;;;3.50;99.90;;;;;;5053613;28;20545;-60
2020/12/31 09:17:33;;;;;;;6.72;5.18;;;3.40;99.90;;;;;;5052996;28;20044;-60
2020/12/31 09:19:58;;;;;;;7.45;5.45;;;3.50;99.90;;;;;;5053078;28;20021;-60
2020/12/31 09:22:27;;;;;;;9.40;6.28;;;3.50;99.90;;;;;;5052469;28;20363;-59
2020/12/31 09:24:53;;;;;;;8.93;6.07;;;3.40;99.90;;;;;;5052425;28;20021;-61
2020/12/31 09:27:26;;;;;;;6.70;4.80;;;3.40;99.90;;;;;;5052514;28;20057;-59
2020/12/31 09:29:59;;;;;;;9.23;5.20;;;3.40;99.90;;;;;;5053969;28;20056;-70
2020/12/31 09:32:25;;;;;;;8.93;5.30;;;3.40;99.90;;;;;;5052587;28;20123;-60
2020/12/31 09:34:51;;;;;;;6.43;4.70;;;3.70;99.90;;;;;;5053190;28;20478;-62
2020/12/31 09:37:17;;;;;;;7.78;5.40;;;3.70;99.90;;;;;;5053479;28;20035;-60
2020/12/31 09:39:44;;;;;;;7.72;5.63;;;3.70;99.90;;;;;;5052484;28;20033;-60
2020/12/31 09:42:10;;;;;;;7.15;5.20;;;3.80;99.90;;;;;;5053575;28;20113;-60
2020/12/31 09:44:36;;;;;;;6.85;5.10;;;3.70;99.90;;;;;;5052682;28;20032;-64
2020/12/31 09:47:03;;;;;;;6.70;4.82;;;3.80;99.90;;;;;;5050280;28;20049;-59
2020/12/31 09:49:28;;;;;;;6.25;5.05;;;3.70;99.90;;;;;;5053590;28;20454;-60
2020/12/31 09:51:54;;;;;;;8.02;4.97;;;3.80;99.90;;;;;;5052667;28;20075;-62
2020/12/31 09:54:20;;;;;;;8.85;5.22;;;4.00;99.90;;;;;;5053855;28;20071;-64
2020/12/31 09:56:46;;;;;;;7.63;5.13;;;3.90;99.90;;;;;;5052498;28;20116;-59
2020/12/31 09:59:11;;;;;;;6.97;5.10;;;3.70;99.90;;;;;;5051534;28;20463;-58
2020/12/31 10:01:37;;;;;;;8.98;6.13;;;3.80;99.90;;;;;;5053686;28;20032;-59
2020/12/31 10:04:03;;;;;;;7.72;4.90;;;3.70;99.90;;;;;;5051928;28;20025;-64
2020/12/31 10:06:28;;;;;;;6.47;4.32;;;3.70;99.90;;;;;;5053661;28;20029;-60
2020/12/31 10:08:54;;;;;;;8.38;3.83;;;3.90;99.90;;;;;;5053029;28;20029;-70
2020/12/31 10:11:21;;;;;;;7.03;4.15;;;4.00;99.90;;;;;;5055342;28;20110;-60
2020/12/31 10:13:47;;;;;;;9.75;4.20;;;3.90;99.90;;;;;;5054620;28;20032;-58
2020/12/31 10:16:13;;;;;;;4.43;3.55;;;3.90;99.90;;;;;;5052584;28;20032;-60
2020/12/31 10:18:38;;;;;;;4.82;3.85;;;3.70;99.90;;;;;;5054410;28;20036;-61
2020/12/31 10:21:04;;;;;;;7.38;3.75;;;3.80;99.90;;;;;;5052494;28;20028;-60
2020/12/31 10:23:30;;;;;;;6.47;3.70;;;3.80;99.90;;;;;;5052369;28;20033;-61
2020/12/31 10:25:56;;;;;;;5.07;3.53;;;3.80;99.90;;;;;;5053309;28;20029;-71
2020/12/31 10:28:22;;;;;;;5.07;3.08;;;3.80;99.90;;;;;;5053299;28;20095;-59
2020/12/31 10:30:48;;;;;;;4.55;3.65;;;3.60;99.90;;;;;;5052422;28;20029;-58
2020/12/31 10:33:14;;;;;;;4.30;3.22;;;3.50;99.90;;;;;;5051908;28;20025;-59
2020/12/31 10:35:40;;;;;;;5.07;3.20;;;3.30;99.90;;;;;;5054041;28;20060;-58
2020/12/31 10:38:06;;;;;;;6.50;4.55;;;3.20;99.90;;;;;;5052327;28;20029;-64
2020/12/31 10:40:32;;;;;;;5.78;3.88;;;3.10;99.90;;;;;;5054022;28;20032;-59
2020/12/31 10:42:57;;;;;;;6.25;3.92;;;3.20;99.90;;;;;;5053524;28;20159;-62
2020/12/31 10:45:23;;;;;;;5.40;3.67;;;3.30;99.90;;;;;;5053749;28;20052;-59
2020/12/31 10:47:48;;;;;;;4.50;3.42;;;3.30;99.90;;;;;;5053776;28;20045;-61
2020/12/31 10:50:14;;;;;;;7.18;3.60;;;3.20;99.90;;;;;;5053376;28;20032;-62
2020/12/31 10:52:40;;;;;;;5.85;3.45;;;3.10;99.90;;;;;;5053582;28;20441;-60
2020/12/31 10:55:05;;;;;;;5.35;3.88;;;3.30;99.90;;;;;;5052640;28;20031;-60
2020/12/31 10:57:31;;;;;;;7.78;4.22;;;3.10;99.90;;;;;;5053682;28;20116;-61
2020/12/31 10:59:57;;;;;;;5.45;3.75;;;3.20;99.90;;;;;;5054487;28;20032;-60
2020/12/31 11:02:23;;;;;;;4.82;3.95;;;3.30;99.90;;;;;;5051715;28;20409;-58
2020/12/31 11:04:48;;;;;;;6.38;4.20;;;3.40;99.90;;;;;;5052390;28;20032;-61
2020/12/31 11:07:14;;;;;;;5.80;4.22;;;3.40;99.90;;;;;;5050853;28;20429;-60
2020/12/31 11:09:40;;;;;;;7.57;4.55;;;3.20;99.90;;;;;;5051759;28;20025;-60
2020/12/31 11:12:05;;;;;;;6.05;4.22;;;3.20;99.90;;;;;;5052488;28;20091;-59
2020/12/31 11:14:31;;;;;;;7.00;4.20;;;3.10;99.90;;;;;;5051680;28;20119;-59
2020/12/31 11:16:57;;;;;;;8.88;4.10;;;3.10;99.90;;;;;;5052779;28;20494;-59
2020/12/31 11:19:22;;;;;;;8.77;5.03;;;3.10;99.90;;;;;;5050817;28;20409;-60
2020/12/31 11:21:51;;;;;;;5.70;4.32;;;3.00;99.90;;;;;;5051750;28;20025;-59
2020/12/31 11:24:17;;;;;;;8.90;5.35;;;3.00;99.90;;;;;;5052400;28;20028;-59
2020/12/31 11:26:44;;;;;;;6.88;4.25;;;3.10;99.90;;;;;;5051396;28;20029;-60
2020/12/31 11:29:09;;;;;;;8.82;4.60;;;3.30;99.90;;;;;;5050704;28;20083;-58
2020/12/31 11:31:35;;;;;;;9.60;4.90;;;3.30;99.90;;;;;;5052901;28;20033;-61
2020/12/31 11:34:01;;;;;;;8.25;4.15;;;3.30;99.90;;;;;;5051339;28;20158;-61
2020/12/31 11:36:28;;;;;;;5.60;3.92;;;3.10;99.90;;;;;;5053442;28;20032;-60
2020/12/31 11:38:54;;;;;;;6.25;4.68;;;3.10;99.90;;;;;;5053062;28;20425;-59
2020/12/31 11:41:21;;;;;;;8.15;4.50;;;3.10;99.90;;;;;;5051923;28;20052;-63
2020/12/31 11:43:46;;;;;;;8.25;4.68;;;3.20;99.90;;;;;;5051669;28;20033;-58
2020/12/31 11:46:12;;;;;;;7.53;5.20;;;3.20;99.90;;;;;;5050734;28;20063;-59
2020/12/31 11:48:38;;;;;;;7.22;4.35;;;3.30;99.90;;;;;;5051628;28;20059;-59
2020/12/31 11:51:08;;;;;;;6.43;4.28;;;3.00;99.90;;;;;;5051332;28;20119;-59
2020/12/31 11:53:34;;;;;;;9.93;4.43;;;3.10;99.90;;;;;;5051517;28;20029;-60
2020/12/31 11:56:01;;;;;;;5.78;4.07;;;3.10;99.90;;;;;;5052788;28;20025;-60
2020/12/31 11:58:27;;;;;;;9.18;4.07;;;3.00;99.90;;;;;;5052599;28;20055;-60
2020/12/31 12:00:53;;;;;;;5.82;4.40;;;3.10;99.90;;;;;;5052525;28;20021;-61
2020/12/31 12:03:19;;;;;;;6.15;3.67;;;3.10;99.90;;;;;;5050947;28;20032;-62
2020/12/31 12:05:44;;;;;;;5.85;3.30;;;3.00;99.90;;;;;;5053000;28;20539;-58
2020/12/31 12:08:10;;;;;;;6.97;3.65;;;2.90;99.90;;;;;;5052505;28;20041;-60
2020/12/31 12:10:35;;;;;;;7.80;3.72;;;2.90;99.90;;;;;;5054089;28;20021;-60
2020/12/31 12:13:02;;;;;;;9.68;4.65;;;2.80;99.90;;;;;;5056629;28;20025;-60
2020/12/31 12:15:27;;;;;;;5.18;3.50;;;2.80;99.90;;;;;;5054885;28;20534;-61
2020/12/31 12:17:53;;;;;;;5.57;3.72;;;2.70;99.90;;;;;;5054675;28;20064;-61
2020/12/31 12:20:19;;;;;;;6.15;3.83;;;2.90;99.90;;;;;;5054059;28;20116;-62
2020/12/31 12:22:45;;;;;;;4.97;3.42;;;3.00;99.90;;;;;;5056488;28;20171;-62
2020/12/31 12:25:12;;;;;;;6.70;3.55;;;2.80;99.90;;;;;;5057149;28;20056;-60
2020/12/31 12:27:38;;;;;;;6.15;3.90;;;2.90;99.90;;;;;;5056094;28;20033;-60
2020/12/31 12:30:07;;;;;;;5.47;3.70;;;2.90;99.90;;;;;;5055801;28;20523;-73
2020/12/31 12:32:33;;;;;;;5.82;3.60;;;2.80;99.90;;;;;;5053285;28;20031;-61
2020/12/31 12:34:59;;;;;;;5.68;4.05;;;2.60;99.90;;;;;;5054941;28;20075;-61
2020/12/31 12:37:25;;;;;;;5.85;3.78;;;2.60;99.90;;;;;;5054708;28;20025;-60
2020/12/31 12:39:50;;;;;;;4.40;3.75;;;2.70;99.90;;;;;;5054903;28;20025;-60
2020/12/31 12:42:16;;;;;;;7.65;4.97;;;2.60;99.90;;;;;;5052790;28;20371;-60
2020/12/31 12:44:42;;;;;;;7.10;4.68;;;2.50;99.90;;;;;;5053649;28;20378;-60
2020/12/31 12:47:08;;;;;;;7.32;4.50;;;2.50;99.90;;;;;;5051874;28;20048;-60
2020/12/31 12:49:33;;;;;;;8.48;4.95;;;2.60;99.90;;;;;;5055391;28;20459;-63
2020/12/31 12:52:02;;;;;;;5.65;4.03;;;2.50;99.90;;;;;;5054379;28;20383;-61
2020/12/31 12:54:28;;;;;;;12.55;5.85;;;2.70;99.90;;;;;;5055214;28;20032;-59
2020/12/31 12:56:54;;;;;;;7.03;4.75;;;2.70;99.90;;;;;;5055070;28;20036;-60
2020/12/31 12:59:20;;;;;;;7.95;5.32;;;2.70;99.90;;;;;;5052867;28;20074;-65